Time;durP1;ratioP1;P1;durP2;ratioP2;P2;SDS_P1;SDS_P2;PMS_P1;PMS_P2;Temp;Humidity;BMP_temperature;BMP_pressure;BME280_temperature;BME280_humidity;BME280_pressure;Samples;Min_cycle;Max_cycle;Signal;HPM_P1;HPM_P2
2021/10/09 00:00:42;;;;;;;0.82;0.70;;;;;;;13.46;69.82;100282.91;5052349;28;20036;-51
2021/10/09 00:03:07;;;;;;;1.73;0.73;;;;;;;13.36;70.25;100289.72;5051980;28;20040;-51
2021/10/09 00:05:32;;;;;;;1.50;0.80;;;;;;;13.37;70.15;100283.34;5051845;28;20029;-50
2021/10/09 00:07:59;;;;;;;1.55;1.00;;;;;;;13.35;70.35;100290.75;5051790;28;20036;-50
2021/10/09 00:10:27;;;;;;;1.30;0.90;;;;;;;13.37;70.15;100283.34;5052029;28;20032;-50
2021/10/09 00:12:52;;;;;;;1.02;0.93;;;;;;;13.57;69.33;100292.13;5051970;28;20016;-50
2021/10/09 00:15:18;;;;;;;1.25;1.00;;;;;;;13.57;69.07;100289.44;5051832;28;20131;-50
2021/10/09 00:17:43;;;;;;;1.13;1.00;;;;;;;13.55;69.27;100286.16;5051535;28;20442;-50
2021/10/09 00:20:09;;;;;;;1.23;0.90;;;;;;;13.41;69.55;100284.56;5051805;28;20032;-49
2021/10/09 00:22:34;;;;;;;1.05;0.93;;;;;;;13.44;69.55;100287.66;5051700;28;20021;-49
2021/10/09 00:25:00;;;;;;;1.00;0.80;;;;;;;13.37;69.50;100253.94;5051770;28;20025;-50
2021/10/09 00:27:25;;;;;;;0.95;0.85;;;;;;;13.30;70.29;100286.03;5051832;28;20017;-49
2021/10/09 00:29:51;;;;;;;1.20;0.93;;;;;;;13.48;69.62;100280.84;5051545;28;20053;-49
2021/10/09 00:32:16;;;;;;;1.15;0.80;;;;;;;13.07;71.41;100281.91;5051483;28;20084;-49
2021/10/09 00:34:42;;;;;;;0.75;0.60;;;;;;;13.31;70.91;100276.97;5051331;28;20036;-52
2021/10/09 00:37:07;;;;;;;1.00;0.82;;;;;;;12.75;72.93;100277.38;5051685;28;20388;-52
2021/10/09 00:39:33;;;;;;;0.98;0.70;;;;;;;13.01;71.78;100269.38;5051295;28;20469;-54
2021/10/09 00:41:58;;;;;;;1.30;0.90;;;;;;;13.11;71.85;100269.75;5051398;28;20056;-52
2021/10/09 00:44:24;;;;;;;0.70;0.68;;;;;;;13.04;71.25;100271.63;5051298;28;20032;-51
2021/10/09 00:46:49;;;;;;;1.42;0.90;;;;;;;12.96;71.51;100265.66;5051240;28;20439;-50
2021/10/09 00:49:15;;;;;;;0.90;0.90;;;;;;;12.95;71.79;100274.72;5051380;28;20036;-49
2021/10/09 00:51:46;;;;;;;0.90;0.90;;;;;;;13.05;71.45;100269.78;5051491;28;20029;-50
2021/10/09 00:54:13;;;;;;;1.15;0.80;;;;;;;12.74;71.63;100263.22;5051128;28;20331;-50
2021/10/09 00:56:39;;;;;;;2.40;1.00;;;;;;;12.81;71.74;100266.72;5051303;28;20055;-49
2021/10/09 00:59:05;;;;;;;1.38;1.00;;;;;;;13.05;70.89;100257.25;5051180;28;20032;-50
2021/10/09 01:01:30;;;;;;;2.03;0.90;;;;;;;12.89;71.77;100253.16;5050850;28;20021;-50
2021/10/09 01:03:56;;;;;;;1.33;0.88;;;;;;;12.69;72.38;100263.00;5032925;28;20021;-50
2021/10/09 01:06:21;;;;;;;1.00;0.80;;;;;;;12.98;71.74;100261.75;5049704;28;20400;-51
2021/10/09 01:08:47;;;;;;;0.90;0.60;;;;;;;13.18;70.60;100248.38;5051277;28;20021;-49
2021/10/09 01:11:12;;;;;;;1.83;0.70;;;;;;;13.34;69.66;100257.03;5049798;28;20017;-50
2021/10/09 01:13:38;;;;;;;0.82;0.80;;;;;;;12.94;71.10;100254.38;5049691;28;20029;-49
2021/10/09 01:16:12;;;;;;;1.83;1.10;;;;;;;13.21;70.26;100253.31;5050956;28;20036;-50
2021/10/09 01:18:38;;;;;;;1.05;0.95;;;;;;;13.17;69.93;100260.09;5034531;28;20523;-49
2021/10/09 01:21:04;;;;;;;1.00;0.90;;;;;;;13.26;70.22;100258.03;5051108;28;20021;-51
2021/10/09 01:23:30;;;;;;;0.85;0.85;;;;;;;12.74;71.84;100257.88;5050940;28;20096;-49
2021/10/09 01:25:55;;;;;;;0.95;0.93;;;;;;;12.50;72.68;100257.44;5051088;28;20132;-49
2021/10/09 01:28:21;;;;;;;1.25;1.00;;;;;;;12.07;74.33;100259.59;5049491;28;20059;-51
2021/10/09 01:30:46;;;;;;;2.00;0.85;;;;;;;12.15;73.70;100253.25;5048125;28;20501;-52
2021/10/09 01:33:12;;;;;;;1.10;0.80;;;;;;;12.38;73.18;100258.25;5045951;28;20397;-50
2021/10/09 01:35:57;;;;;;;1.25;0.90;;;;;;;12.68;73.01;100259.50;5050717;28;20087;-48
2021/10/09 01:38:25;;;;;;;0.90;0.80;;;;;;;12.69;72.53;100257.66;5050471;28;20035;-49
2021/10/09 01:40:50;;;;;;;1.88;0.88;;;;;;;12.85;71.32;100259.94;5050492;28;20473;-47
2021/10/09 01:43:17;;;;;;;0.88;0.68;;;;;;;12.58;72.51;100256.41;5050580;28;20021;-48
2021/10/09 01:45:42;;;;;;;2.05;1.30;;;;;;;12.80;71.66;100257.03;5050487;28;20039;-50
2021/10/09 01:48:08;;;;;;;0.90;0.80;;;;;;;12.88;71.55;100256.84;5050480;28;20109;-48
2021/10/09 01:50:34;;;;;;;1.30;0.90;;;;;;;13.06;70.22;100258.03;5050789;28;20035;-49
2021/10/09 01:53:00;;;;;;;1.00;0.85;;;;;;;12.93;70.95;100252.72;5050585;28;20116;-48
2021/10/09 01:55:25;;;;;;;1.15;1.00;;;;;;;13.01;71.04;100263.22;5050483;28;20111;-48
2021/10/09 01:57:51;;;;;;;0.70;0.70;;;;;;;13.01;70.67;100260.53;5050311;28;20061;-48
2021/10/09 02:00:16;;;;;;;1.52;0.88;;;;;;;12.95;70.69;100261.38;5050246;28;20053;-49
2021/10/09 02:02:42;;;;;;;1.63;0.90;;;;;;;12.89;70.87;100263.84;5050416;28;20036;-48
2021/10/09 02:05:07;;;;;;;1.00;0.90;;;;;;;12.94;70.94;100260.53;5050537;28;20087;-48
2021/10/09 02:07:34;;;;;;;0.95;0.88;;;;;;;13.04;70.35;100266.28;5050186;28;20025;-48
2021/10/09 02:10:00;;;;;;;1.52;1.00;;;;;;;13.02;70.08;100262.16;5050300;28;20021;-48
2021/10/09 02:12:26;;;;;;;1.38;1.00;;;;;;;13.18;69.96;100260.94;5050428;28;20354;-49
2021/10/09 02:15:03;;;;;;;1.35;0.90;;;;;;;13.11;69.88;100260.94;5052321;28;20040;-48
2021/10/09 02:25:45;;;;;;;1.80;1.38;;;;;;;12.85;71.65;100262.59;5054369;28;20108;-48
2021/10/09 02:28:12;;;;;;;2.40;0.93;;;;;;;12.87;71.69;100259.69;5053928;28;20385;-49
2021/10/09 02:30:38;;;;;;;0.80;0.75;;;;;;;13.09;70.61;100271.00;5053879;28;20588;-49
2021/10/09 02:33:05;;;;;;;1.40;1.10;;;;;;;13.38;69.85;100268.94;5053902;28;20476;-50
2021/10/09 02:35:30;;;;;;;1.20;0.90;;;;;;;12.91;70.69;100268.97;5053939;28;20541;-49
2021/10/09 02:37:56;;;;;;;1.45;0.90;;;;;;;12.58;71.82;100263.59;5053799;28;20104;-50
2021/10/09 02:40:21;;;;;;;0.90;0.80;;;;;;;12.44;71.42;100265.44;5053620;28;20033;-51
2021/10/09 02:42:47;;;;;;;2.05;0.70;;;;;;;12.67;71.25;100267.72;5053464;28;20027;-52
2021/10/09 02:45:12;;;;;;;1.00;0.85;;;;;;;12.29;72.28;100269.09;5053651;28;20103;-49
2021/10/09 02:47:38;;;;;;;0.60;0.60;;;;;;;12.02;73.22;100267.38;5053789;28;20021;-52
2021/10/09 02:50:04;;;;;;;1.00;0.90;;;;;;;12.16;72.49;100268.25;5053512;28;20031;-48
2021/10/09 02:52:30;;;;;;;1.15;1.02;;;;;;;12.24;72.63;100265.38;5058317;28;20020;-49
2021/10/09 02:54:55;;;;;;;1.50;1.08;;;;;;;12.05;74.65;100266.97;5073723;28;20032;-49
2021/10/09 02:57:21;;;;;;;0.63;0.63;;;;;;;12.31;72.69;100264.38;5073217;28;20032;-38
2021/10/09 02:59:46;;;;;;;1.65;0.98;;;;;;;12.21;72.48;100260.47;5073522;28;20451;-38
2021/10/09 03:02:11;;;;;;;1.95;0.98;;;;;;;12.29;72.41;100262.94;5073388;28;20409;-38
2021/10/09 03:04:37;;;;;;;3.47;1.40;;;;;;;12.02;73.74;100262.06;5073650;28;20058;-38
2021/10/09 03:07:02;;;;;;;2.33;1.40;;;;;;;12.10;73.59;100256.53;5073303;28;20025;-38
2021/10/09 03:09:28;;;;;;;1.17;1.00;;;;;;;12.22;73.14;100262.94;5073531;28;20025;-38
2021/10/09 03:11:53;;;;;;;1.08;0.77;;;;;;;12.42;72.82;100265.63;5073349;28;20028;-39
2021/10/09 03:14:19;;;;;;;3.15;0.90;;;;;;;12.43;73.01;100267.28;5073357;28;20020;-39
2021/10/09 03:16:45;;;;;;;0.80;0.80;;;;;;;12.16;73.24;100262.91;5073113;28;20021;-38
2021/10/09 03:19:11;;;;;;;3.17;1.40;;;;;;;12.56;72.26;100262.97;5073037;28;20046;-38
2021/10/09 03:21:36;;;;;;;1.63;1.10;;;;;;;12.60;72.40;100261.56;5072870;28;20025;-38
2021/10/09 03:24:02;;;;;;;2.10;1.30;;;;;;;12.52;72.80;100267.91;5073025;28;20032;-38
2021/10/09 03:26:27;;;;;;;1.08;0.98;;;;;;;12.62;73.26;100267.50;5072807;28;20380;-38
2021/10/09 03:28:53;;;;;;;1.75;1.05;;;;;;;12.90;71.04;100270.00;5072826;28;20024;-38
2021/10/09 03:31:18;;;;;;;1.33;1.20;;;;;;;12.94;71.22;100276.56;5072594;28;20518;-38
2021/10/09 03:33:44;;;;;;;1.77;1.13;;;;;;;12.75;71.30;100269.38;5056235;28;20016;-37
2021/10/09 03:36:09;;;;;;;1.30;1.20;;;;;;;12.99;71.01;100275.97;5052299;28;20078;-38
2021/10/09 03:38:36;;;;;;;2.10;1.52;;;;;;;12.51;72.04;100271.63;5052131;28;20021;-38
2021/10/09 03:41:11;;;;;;;2.85;1.40;;;;;;;12.66;72.24;100272.25;5052729;28;20029;-38
2021/10/09 03:43:37;;;;;;;1.45;1.23;;;;;;;12.52;72.12;100275.91;5052313;28;20465;-38
2021/10/09 03:46:19;;;;;;;2.08;1.20;;;;;;;12.43;72.16;100269.97;5051941;28;20033;-38
2021/10/09 03:53:54;;;;;;;2.97;1.80;;;;;;;12.91;71.03;100268.97;5052376;28;20546;-38
2021/10/09 03:56:20;;;;;;;2.70;2.25;;;;;;;12.80;70.69;100273.06;5052127;28;20029;-39
2021/10/09 03:58:45;;;;;;;2.55;1.80;;;;;;;12.05;72.94;100272.31;5050644;28;20409;-38
2021/10/09 04:01:11;;;;;;;1.52;1.30;;;;;;;12.13;72.66;100270.28;5051845;28;20044;-38
2021/10/09 04:03:36;;;;;;;1.80;1.42;;;;;;;11.91;73.35;100272.25;5052028;28;20036;-38
2021/10/09 04:06:02;;;;;;;1.20;1.00;;;;;;;12.02;72.61;100262.88;5051812;28;20469;-38
2021/10/09 04:08:27;;;;;;;1.65;1.30;;;;;;;11.71;73.78;100261.50;5051722;28;20040;-38
2021/10/09 04:10:53;;;;;;;1.35;0.90;;;;;;;11.83;74.16;100261.75;5051546;28;20377;-38
2021/10/09 04:13:18;;;;;;;1.45;1.20;;;;;;;11.42;75.44;100264.41;5051874;28;20025;-38
2021/10/09 04:15:44;;;;;;;3.83;2.05;;;;;;;11.43;75.03;100264.22;5051647;28;20441;-38
2021/10/09 04:18:09;;;;;;;2.78;1.52;;;;;;;11.78;75.14;100272.16;5051551;28;20067;-38
2021/10/09 04:20:36;;;;;;;2.97;1.77;;;;;;;11.81;74.52;100269.13;5052003;28;20044;-38
2021/10/09 04:23:01;;;;;;;2.45;1.75;;;;;;;11.90;73.23;100264.47;5051527;28;20311;-37
2021/10/09 04:25:27;;;;;;;2.28;1.60;;;;;;;11.96;72.98;100271.69;5051793;28;20116;-37
2021/10/09 04:27:52;;;;;;;1.92;1.38;;;;;;;11.68;73.77;100283.19;5051665;28;20033;-37
2021/10/09 04:30:17;;;;;;;2.08;1.08;;;;;;;11.28;75.77;100282.97;5051411;28;20056;-37
2021/10/09 04:32:43;;;;;;;1.67;1.30;;;;;;;11.29;77.50;100297.94;5051505;28;20029;-37
2021/10/09 04:35:08;;;;;;;1.80;1.20;;;;;;;11.67;74.64;100289.56;5051169;28;20515;-37
2021/10/09 04:37:34;;;;;;;1.65;1.30;;;;;;;11.79;73.95;100291.69;5050240;28;20024;-37
2021/10/09 04:39:59;;;;;;;1.67;1.40;;;;;;;11.83;74.42;100303.59;5051108;28;20094;-37
2021/10/09 04:42:25;;;;;;;2.00;1.25;;;;;;;11.91;74.38;100304.25;5050843;28;20082;-38
2021/10/09 04:44:50;;;;;;;24.92;14.95;;;;;;;12.30;72.65;100300.09;5051114;28;20500;-37
2021/10/09 04:47:16;;;;;;;49.97;30.52;;;;;;;12.28;72.67;100303.97;5051122;28;20353;-38
2021/10/09 04:49:41;;;;;;;10.30;6.50;;;;;;;12.46;72.04;100306.09;5050930;28;20405;-36
2021/10/09 04:52:07;;;;;;;21.88;12.10;;;;;;;12.54;70.78;100313.91;5051186;28;20032;-38
2021/10/09 04:54:32;;;;;;;3.53;2.25;;;;;;;12.70;70.23;100310.06;5050985;28;20029;-36
2021/10/09 04:56:57;;;;;;;3.05;1.73;;;;;;;12.49;70.20;100284.34;5051298;28;20526;-38
2021/10/09 04:59:23;;;;;;;4.40;1.58;;;;;;;12.66;69.99;100306.97;5050959;28;20025;-37
2021/10/09 05:01:48;;;;;;;2.30;1.88;;;;;;;12.31;71.15;100309.75;5051178;28;20060;-38
2021/10/09 05:04:14;;;;;;;4.80;3.00;;;;;;;12.16;71.79;100317.09;5051129;28;20116;-37
2021/10/09 05:06:39;;;;;;;6.13;4.85;;;;;;;12.18;72.35;100316.88;5050959;28;20045;-38
2021/10/09 05:09:07;;;;;;;9.85;8.48;;;;;;;12.28;72.06;100318.16;5051102;28;20033;-39
2021/10/09 05:11:32;;;;;;;17.30;13.68;;;;;;;12.21;72.16;100316.50;5051065;28;20032;-38
2021/10/09 05:13:58;;;;;;;22.48;15.07;;;;;;;12.50;71.64;100318.81;5051012;28;20083;-39
2021/10/09 05:16:23;;;;;;;20.73;16.20;;;;;;;11.67;74.17;100321.56;5050929;28;20025;-38
2021/10/09 05:18:49;;;;;;;13.73;10.93;;;;;;;11.66;75.23;100325.25;5051069;28;20032;-38
2021/10/09 05:21:14;;;;;;;11.98;9.18;;;;;;;11.80;75.21;100327.97;5050677;28;20112;-38
2021/10/09 05:23:40;;;;;;;14.50;10.80;;;;;;;11.79;74.05;100331.69;5050876;28;20040;-38
2021/10/09 05:26:06;;;;;;;14.68;10.85;;;;;;;11.85;74.15;100330.88;5051269;28;20029;-38
2021/10/09 05:28:43;;;;;;;6.60;4.75;;;;;;;11.32;76.06;100331.38;5051057;28;20447;-38
2021/10/09 05:31:11;;;;;;;6.05;4.60;;;;;;;11.47;76.46;100332.09;5050030;28;20489;-38
2021/10/09 05:33:37;;;;;;;4.82;3.63;;;;;;;11.62;74.84;100334.66;5049867;28;20178;-39
2021/10/09 05:36:03;;;;;;;4.50;3.70;;;;;;;11.89;74.39;100334.78;5050404;28;20033;-38
2021/10/09 05:38:29;;;;;;;4.65;3.50;;;;;;;11.75;74.39;100336.56;5050550;28;20033;-39
2021/10/09 05:40:55;;;;;;;5.88;3.80;;;;;;;12.12;73.49;100342.53;5050713;28;20036;-39
2021/10/09 05:43:21;;;;;;;6.43;3.50;;;;;;;11.59;75.94;100344.88;5050390;28;20033;-38
2021/10/09 05:45:47;;;;;;;68.25;41.50;;;;;;;11.66;75.44;100337.75;5049674;28;20027;-37
2021/10/09 05:48:12;;;;;;;13.60;7.80;;;;;;;11.31;76.17;100341.22;5050656;28;20037;-37
2021/10/09 05:55:40;;;;;;;6.70;4.43;;;;;;;11.57;75.81;100347.72;5073447;28;20028;-37
2021/10/09 05:58:22;;;;;;;7.03;4.93;;;;;;;11.83;74.75;100344.41;5073813;28;20064;-38
2021/10/09 06:47:15;;;;;;;3.85;2.90;;;;;;;12.75;72.49;100389.53;5052879;28;20036;-38
2021/10/09 07:00:44;;;;;;;2.08;1.77;;;;;;;11.97;73.60;100396.00;5035870;28;20052;-39
2021/10/09 07:03:09;;;;;;;1.77;1.38;;;;;;;11.89;74.80;100398.81;5045281;28;20037;-49
2021/10/09 07:05:40;;;;;;;2.33;1.83;;;;;;;12.39;74.15;100396.81;5036200;28;20034;-50
2021/10/09 07:08:09;;;;;;;2.00;1.65;;;;;;;11.73;75.26;100392.75;5031979;28;20035;-48
2021/10/09 07:10:39;;;;;;;3.50;2.17;;;;;;;11.31;76.76;100404.34;5049048;28;20408;-49
2021/10/09 07:13:04;;;;;;;4.55;2.88;;;;;;;11.81;83.54;100413.13;5052222;28;20029;-47
2021/10/09 07:15:30;;;;;;;2.90;2.13;;;;;;;11.53;77.46;100407.78;5051517;28;20082;-48
2021/10/09 07:17:55;;;;;;;2.50;2.00;;;;;;;12.19;75.89;100406.59;5051969;28;20061;-49
2021/10/09 07:20:21;;;;;;;28.73;17.92;;;;;;;11.84;76.45;100420.72;5051962;28;20125;-51
2021/10/09 07:22:50;;;;;;;51.50;29.98;;;;;;;11.57;78.61;100411.69;5052247;28;20038;-54
2021/10/09 07:25:16;;;;;;;3.78;2.80;;;;;;;11.20;78.92;100411.00;5052251;28;20028;-48
2021/10/09 07:27:41;;;;;;;4.65;2.70;;;;;;;11.27;79.29;100419.03;5051995;28;20056;-52
2021/10/09 07:30:07;;;;;;;5.50;3.10;;;;;;;11.44;78.45;100417.78;5052036;28;20363;-38
2021/10/09 07:32:33;;;;;;;4.32;3.45;;;;;;;11.57;77.40;100418.88;5051923;28;20146;-37
2021/10/09 07:34:58;;;;;;;4.30;3.35;;;;;;;11.54;78.46;100420.94;5051902;28;20415;-38
2021/10/09 07:37:24;;;;;;;6.80;4.40;;;;;;;11.51;77.95;100425.81;5051964;28;20465;-38
2021/10/09 07:39:49;;;;;;;4.57;3.80;;;;;;;11.25;79.84;100429.91;5050464;28;20029;-38
2021/10/09 07:42:15;;;;;;;4.90;3.92;;;;;;;11.07;82.12;100429.53;5042622;28;20108;-38
2021/10/09 07:44:40;;;;;;;7.43;4.50;;;;;;;10.89;83.63;100437.94;5049760;28;20025;-39
2021/10/09 07:47:09;;;;;;;4.60;3.70;;;;;;;11.11;82.88;100444.94;5051637;28;20029;-39
2021/10/09 07:49:35;;;;;;;7.05;4.80;;;;;;;11.24;82.37;100438.91;5051634;28;20029;-38
2021/10/09 07:52:00;;;;;;;9.23;7.38;;;;;;;11.27;82.00;100435.88;5051140;28;20376;-38
2021/10/09 07:54:26;;;;;;;7.30;5.85;;;;;;;11.22;81.89;100424.94;5051063;28;20082;-38
2021/10/09 07:56:51;;;;;;;8.02;6.40;;;;;;;11.40;81.33;100431.66;5051105;28;20029;-38
2021/10/09 07:59:17;;;;;;;4.82;4.00;;;;;;;11.37;81.02;100432.06;5051259;28;20091;-37
2021/10/09 08:01:42;;;;;;;4.30;3.60;;;;;;;12.04;78.75;100441.41;5050903;28;20031;-37
2021/10/09 08:04:10;;;;;;;4.97;3.60;;;;;;;12.46;76.64;100432.38;5049761;28;20072;-38
2021/10/09 08:06:35;;;;;;;4.85;3.60;;;;;;;12.82;75.00;100427.78;5044627;28;20063;-37
2021/10/09 08:09:01;;;;;;;6.80;5.15;;;;;;;12.74;74.15;100428.78;5030953;28;20041;-38
2021/10/09 08:11:27;;;;;;;6.68;4.70;;;;;;;13.05;73.76;100430.09;5030783;28;20032;-37
2021/10/09 08:13:52;;;;;;;7.97;6.28;;;;;;;13.20;73.21;100422.72;5031069;28;20673;-39
2021/10/09 08:16:18;;;;;;;7.15;6.05;;;;;;;13.12;73.53;100430.94;5031778;28;20095;-37
2021/10/09 08:18:43;;;;;;;3.10;2.70;;;;;;;12.86;73.73;100429.84;5031121;28;20547;-38
2021/10/09 08:21:09;;;;;;;3.10;2.67;;;;;;;12.88;73.64;100426.97;5030984;28;20034;-38
2021/10/09 08:23:49;;;;;;;3.58;1.70;;;;;;;12.62;74.61;100428.56;5031308;28;20029;-38
2021/10/09 08:39:39;;;;;;;1.27;1.17;;;;;;;11.52;78.78;100444.28;5044671;28;20468;-50
2021/10/09 08:42:05;;;;;;;1.27;0.95;;;;;;;11.46;79.53;100447.72;5050661;28;20036;-48
2021/10/09 08:44:31;;;;;;;1.77;1.45;;;;;;;11.81;77.91;100452.28;5049880;28;20435;-49
2021/10/09 08:46:56;;;;;;;1.30;1.20;;;;;;;11.64;79.43;100447.25;5050013;28;20357;-51
2021/10/09 08:49:21;;;;;;;1.58;1.48;;;;;;;11.69;79.59;100442.16;5050298;28;20021;-51
2021/10/09 08:51:47;;;;;;;1.92;1.50;;;;;;;12.02;78.57;100443.44;5050322;28;20033;-38
2021/10/09 08:54:13;;;;;;;1.50;1.40;;;;;;;12.24;78.22;100445.00;5050021;28;20044;-38
2021/10/09 08:56:39;;;;;;;2.15;1.70;;;;;;;11.97;78.54;100449.34;5049903;28;20090;-38
2021/10/09 08:59:27;;;;;;;1.63;1.52;;;;;;;12.27;77.99;100451.78;5049982;28;20368;-38
2021/10/09 09:02:13;;;;;;;2.35;1.88;;;;;;;11.99;78.63;100449.16;5049030;28;20037;-39
2021/10/09 09:38:53;;;;;;;2.35;1.90;;;;;;;12.07;79.50;100460.50;5049825;28;20055;-38
2021/10/09 09:40:43;;;;;;;2.30;1.90;;;;;;;11.53;82.12;100461.09;5048803;28;20103;-38
2021/10/09 09:43:09;;;;;;;2.10;1.90;;;;;;;11.65;80.54;100459.56;5049382;28;20021;-37
2021/10/09 09:45:36;;;;;;;2.05;1.83;;;;;;;11.99;80.63;100463.31;5048117;28;20021;-38
2021/10/09 09:48:04;;;;;;;3.25;1.98;;;;;;;11.70;79.42;100438.47;5049543;28;20464;-38
2021/10/09 09:50:30;;;;;;;2.03;1.83;;;;;;;11.67;81.07;100465.53;5049324;28;20035;-38
2021/10/09 09:52:55;;;;;;;2.35;2.00;;;;;;;11.69;81.51;100467.97;5049524;28;20021;-38
2021/10/09 09:55:21;;;;;;;1.98;1.77;;;;;;;11.73;80.96;100467.41;5048432;28;20021;-38
2021/10/09 09:57:47;;;;;;;3.53;2.17;;;;;;;11.73;79.40;100467.41;5049338;28;20029;-38
2021/10/09 10:00:14;;;;;;;2.40;1.85;;;;;;;11.76;79.76;100470.72;5049365;28;20052;-38
2021/10/09 10:02:48;;;;;;;1.73;1.58;;;;;;;11.75;80.55;100472.56;5049074;28;20024;-37
2021/10/09 10:05:14;;;;;;;1.40;1.30;;;;;;;11.62;81.88;100470.59;5047650;28;20025;-37
2021/10/09 10:07:40;;;;;;;2.55;1.25;;;;;;;11.86;79.00;100463.19;5047335;28;20055;-38
2021/10/09 10:10:06;;;;;;;3.42;1.27;;;;;;;11.48;81.24;100466.16;5048756;28;20021;-37
2021/10/09 10:12:32;;;;;;;1.20;1.10;;;;;;;11.37;81.32;100461.38;5049085;28;20040;-38
2021/10/09 10:14:58;;;;;;;1.30;1.20;;;;;;;11.23;82.97;100457.75;5047617;28;20568;-38
2021/10/09 10:17:41;;;;;;;2.45;1.35;;;;;;;11.95;80.02;100466.56;5027568;28;20028;-38
2021/10/09 10:20:19;;;;;;;1.63;1.13;;;;;;;11.54;80.87;100466.25;5072723;28;20062;-38
2021/10/09 10:22:44;;;;;;;1.83;1.20;;;;;;;11.50;81.68;100464.16;5049388;28;20025;-38
2021/10/09 10:25:22;;;;;;;1.45;1.35;;;;;;;11.54;82.46;100460.91;5049495;28;20021;-38
2021/10/09 10:28:21;;;;;;;1.50;1.40;;;;;;;12.16;79.80;100465.69;5048980;28;20477;-38
2021/10/09 10:31:03;;;;;;;1.65;1.20;;;;;;;11.32;81.33;100456.59;5024232;28;20053;-38
2021/10/09 10:33:37;;;;;;;1.48;1.17;;;;;;;11.26;82.44;100457.38;5049120;28;20033;-38
2021/10/09 10:36:03;;;;;;;1.30;0.82;;;;;;;11.17;82.32;100455.84;5050104;28;20060;-38
2021/10/09 10:38:37;;;;;;;0.93;0.82;;;;;;;11.41;81.32;100458.13;5051795;28;20083;-38
2021/10/09 10:41:04;;;;;;;1.23;1.00;;;;;;;11.04;82.96;100449.38;5051858;28;20087;-38
2021/10/09 10:44:15;;;;;;;1.20;1.10;;;;;;;11.25;81.91;100461.88;5051802;28;20102;-37
2021/10/09 10:52:25;;;;;;;1.23;1.10;;;;;;;11.15;82.59;100451.50;5052101;28;20347;-38
2021/10/09 10:56:57;;;;;;;2.50;1.40;;;;;;;11.04;83.91;100452.03;5051451;28;20113;-37
2021/10/09 10:59:30;;;;;;;1.38;1.20;;;;;;;11.74;81.63;100457.56;5051356;28;20059;-38
2021/10/09 11:02:21;;;;;;;1.65;1.38;;;;;;;11.90;79.00;100449.31;5051558;28;20108;-38
2021/10/09 11:04:52;;;;;;;;;;;;;;;11.50;81.63;100462.31;5051988;28;20024;-37
2021/10/09 11:07:18;;;;;;;;;;;;;;;11.54;81.10;100462.75;5052064;28;19920;-38
2021/10/09 11:09:44;;;;;;;2.83;1.33;;;;;;;11.63;81.18;100461.59;5051556;28;19912;-37
2021/10/09 11:12:21;;;;;;;1.33;1.17;;;;;;;11.72;80.30;100464.94;5051385;28;20103;-37
2021/10/09 11:14:47;;;;;;;1.20;1.08;;;;;;;11.57;80.67;100454.34;5051202;28;20568;-37
2021/10/09 11:17:12;;;;;;;1.40;1.30;;;;;;;11.25;82.41;100447.72;5051375;28;20048;-37
2021/10/09 11:19:47;;;;;;;1.65;1.00;;;;;;;11.44;82.72;100447.09;5050934;28;20461;-37
2021/10/09 11:22:14;;;;;;;1.63;1.35;;;;;;;12.08;79.44;100453.31;5051290;28;20099;-38
2021/10/09 11:24:43;;;;;;;1.42;1.10;;;;;;;11.72;80.43;100456.94;5051003;28;20017;-38
2021/10/09 11:27:09;;;;;;;1.92;1.50;;;;;;;11.43;81.06;100453.44;5035105;28;20021;-38
2021/10/09 11:29:34;;;;;;;2.10;1.10;;;;;;;11.46;80.91;100455.72;5051113;28;20094;-38
2021/10/09 11:32:04;;;;;;;1.60;1.10;;;;;;;11.32;81.73;100449.44;5050720;28;20036;-38
2021/10/09 11:34:29;;;;;;;1.60;1.30;;;;;;;12.05;79.53;100453.69;5050774;28;20100;-38
2021/10/09 11:36:55;;;;;;;2.03;0.90;;;;;;;11.83;79.63;100455.59;5049512;28;20029;-38
2021/10/09 11:39:24;;;;;;;1.10;0.90;;;;;;;11.01;82.15;100452.41;5032954;28;20021;-38
2021/10/09 11:42:10;;;;;;;1.13;0.80;;;;;;;10.96;83.71;100447.63;5051309;28;20031;-36
2021/10/09 11:44:40;;;;;;;1.60;1.00;;;;;;;11.47;82.26;100459.19;5049291;28;20115;-37
2021/10/09 11:55:24;;;;;;;7.38;5.10;;;;;;;11.62;81.70;100451.94;5051441;28;20107;-39
2021/10/09 11:57:50;;;;;;;2.60;2.08;;;;;;;11.88;80.23;100447.81;5051500;28;20449;-39
2021/10/09 12:00:27;;;;;;;83.28;46.20;;;;;;;11.81;80.14;100449.63;5051648;28;20029;-50
2021/10/09 12:02:56;;;;;;;2.10;1.50;;;;;;;11.54;81.94;100447.56;5051363;28;20254;-50
2021/10/09 12:05:22;;;;;;;1.42;1.33;;;;;;;11.84;80.75;100446.56;5050621;28;20048;-52
2021/10/09 12:08:18;;;;;;;2.33;1.30;;;;;;;11.67;80.69;100456.69;5050357;28;20032;-49
2021/10/09 12:11:25;;;;;;;1.30;1.10;;;;;;;11.58;80.84;100449.88;5050094;28;20049;-54
2021/10/09 12:14:09;;;;;;;1.88;1.50;;;;;;;11.48;81.30;100445.69;5047398;28;20124;-38
2021/10/09 12:16:48;;;;;;;1.30;1.00;;;;;;;11.45;82.35;100446.06;5048845;28;20096;-50
2021/10/09 12:19:14;;;;;;;1.30;1.17;;;;;;;11.49;82.79;100446.50;5048810;28;20048;-52
2021/10/09 12:22:03;;;;;;;2.33;1.00;;;;;;;11.79;81.40;100444.50;5050380;28;20170;-51
2021/10/09 12:24:30;;;;;;;1.30;1.20;;;;;;;11.82;81.45;100448.59;5043613;28;20033;-39
2021/10/09 12:27:12;;;;;;;1.73;1.20;;;;;;;11.88;80.92;100450.47;5049665;28;20082;-39
2021/10/09 12:30:01;;;;;;;1.35;1.00;;;;;;;11.86;81.08;100449.84;5051017;28;20033;-49
2021/10/09 12:32:27;;;;;;;0.98;0.90;;;;;;;11.39;81.25;100444.16;5050640;28;20025;-51
2021/10/09 12:35:07;;;;;;;1.10;0.90;;;;;;;11.29;82.72;100439.16;5050488;28;20021;-51
2021/10/09 12:37:34;;;;;;;4.35;1.20;;;;;;;11.68;81.90;100434.34;5016533;28;20528;-49
2021/10/09 12:40:15;;;;;;;1.40;1.30;;;;;;;12.08;79.18;100443.47;5033473;28;20024;-52
2021/10/09 12:42:46;;;;;;;1.33;1.10;;;;;;;11.69;81.25;100438.66;5033367;28;20046;-53
2021/10/09 12:45:11;;;;;;;1.25;1.13;;;;;;;11.49;81.36;100442.00;5050647;28;20412;-50
2021/10/09 12:47:37;;;;;;;2.55;1.45;;;;;;;11.45;82.63;100446.06;5049965;28;20032;-52
2021/10/09 12:50:03;;;;;;;1.65;1.38;;;;;;;12.02;79.72;100446.94;5049868;28;20036;-51
2021/10/09 12:52:28;;;;;;;1.58;1.48;;;;;;;12.00;78.93;100443.63;5050153;28;20345;-53
2021/10/09 12:54:54;;;;;;;1.60;1.33;;;;;;;11.65;81.00;100451.56;5046918;28;20025;-52
2021/10/09 12:57:19;;;;;;;1.70;1.48;;;;;;;11.40;80.94;100450.31;5048245;28;20070;-49
2021/10/09 12:59:45;;;;;;;1.63;1.30;;;;;;;11.58;81.04;100453.34;5048412;28;20378;-51
2021/10/09 13:02:10;;;;;;;2.05;1.13;;;;;;;11.96;80.22;100457.56;5048487;28;20508;-52
2021/10/09 13:04:36;;;;;;;1.30;1.00;;;;;;;11.48;80.17;100445.69;5048562;28;20021;-50
2021/10/09 13:07:01;;;;;;;1.70;1.33;;;;;;;11.27;82.16;100448.34;5048410;28;20025;-53
2021/10/09 13:09:27;;;;;;;1.65;1.30;;;;;;;11.24;83.04;100440.75;5049710;28;20017;-53
2021/10/09 13:11:58;;;;;;;2.88;1.60;;;;;;;11.16;84.47;100428.38;5050467;28;20013;-51
2021/10/09 13:14:24;;;;;;;1.90;1.60;;;;;;;11.99;81.02;100433.16;5050275;28;20030;-50
2021/10/09 13:16:49;;;;;;;1.85;1.50;;;;;;;11.65;81.49;100430.25;5050295;28;20101;-50
2021/10/09 13:19:15;;;;;;;2.08;1.55;;;;;;;11.57;81.63;100438.38;5050257;28;20422;-52
2021/10/09 13:21:40;;;;;;;2.13;1.60;;;;;;;11.66;81.14;100439.06;5050115;28;20028;-52
2021/10/09 13:24:06;;;;;;;1.52;1.40;;;;;;;11.40;82.51;100434.31;5050359;28;20025;-49
2021/10/09 13:26:32;;;;;;;2.13;1.50;;;;;;;11.69;80.57;100438.66;5050517;28;20531;-53
2021/10/09 13:28:59;;;;;;;3.03;1.90;;;;;;;11.80;80.24;100442.63;5050228;28;20112;-51
2021/10/09 13:31:24;;;;;;;2.30;1.50;;;;;;;11.48;82.03;100443.03;5050134;28;20136;-52
2021/10/09 13:33:50;;;;;;;4.03;1.70;;;;;;;11.39;82.85;100438.84;5050300;28;20025;-52
2021/10/09 13:36:16;;;;;;;1.83;1.42;;;;;;;11.45;81.10;100439.91;5049874;28;20105;-52
2021/10/09 13:38:43;;;;;;;2.92;1.98;;;;;;;12.03;80.14;100445.06;5049904;28;20055;-50
2021/10/09 13:41:10;;;;;;;1.75;1.52;;;;;;;11.30;81.45;100418.66;5050263;28;20021;-51
2021/10/09 13:43:35;;;;;;;2.85;2.10;;;;;;;11.61;81.36;100444.13;5048823;28;20040;-53
2021/10/09 13:46:01;;;;;;;2.25;1.73;;;;;;;11.48;80.72;100439.50;5049771;28;20500;-50